sensor_id;sensor_type;location;lat;lon;timestamp;pressure;altitude;pressure_sealevel;temperature;humidity
63568;BME280;49715;42.386;20.434;2022-07-06T00:01:46;97374.63;;;19.38;70.58
63568;BME280;49715;42.386;20.434;2022-07-06T00:04:17;97385.72;;;19.35;70.65
63568;BME280;49715;42.386;20.434;2022-07-06T00:06:44;97404.81;;;19.32;71.24
63568;BME280;49715;42.386;20.434;2022-07-06T00:09:10;97401.97;;;19.20;70.88
63568;BME280;49715;42.386;20.434;2022-07-06T00:11:37;97420.88;;;19.18;72.71
63568;BME280;49715;42.386;20.434;2022-07-06T00:14:04;97410.97;;;19.12;71.31
63568;BME280;49715;42.386;20.434;2022-07-06T00:16:31;97421.06;;;19.10;71.30
63568;BME280;49715;42.386;20.434;2022-07-06T00:18:57;97437.91;;;19.11;71.42
63568;BME280;49715;42.386;20.434;2022-07-06T00:21:23;97433.56;;;19.03;71.72
63568;BME280;49715;42.386;20.434;2022-07-06T00:23:50;97428.25;;;19.03;71.71
63568;BME280;49715;42.386;20.434;2022-07-06T00:26:18;97427.22;;;19.11;71.97
63568;BME280;49715;42.386;20.434;2022-07-06T00:28:45;97429.28;;;19.15;71.81
63568;BME280;49715;42.386;20.434;2022-07-06T00:31:12;97424.38;;;19.19;72.05
63568;BME280;49715;42.386;20.434;2022-07-06T00:33:39;97423.53;;;19.18;71.72
63568;BME280;49715;42.386;20.434;2022-07-06T00:36:05;97426.00;;;19.26;71.83
63568;BME280;49715;42.386;20.434;2022-07-06T00:38:32;97430.13;;;19.29;71.88
63568;BME280;49715;42.386;20.434;2022-07-06T00:40:59;97420.03;;;19.31;71.74
63568;BME280;49715;42.386;20.434;2022-07-06T00:43:25;97425.19;;;19.33;71.66
63568;BME280;49715;42.386;20.434;2022-07-06T00:45:52;97423.72;;;19.37;71.52
63568;BME280;49715;42.386;20.434;2022-07-06T00:48:18;97423.94;;;19.35;71.26
63568;BME280;49715;42.386;20.434;2022-07-06T00:50:45;97416.53;;;19.30;71.33
63568;BME280;49715;42.386;20.434;2022-07-06T00:53:12;97426.63;;;19.28;71.32
63568;BME280;49715;42.386;20.434;2022-07-06T00:55:39;97417.78;;;19.21;71.17
63568;BME280;49715;42.386;20.434;2022-07-06T00:58:07;97432.38;;;19.25;71.28
63568;BME280;49715;42.386;20.434;2022-07-06T01:00:34;97420.88;;;19.18;71.34
63568;BME280;49715;42.386;20.434;2022-07-06T01:03:01;97425.19;;;19.19;71.27
63568;BME280;49715;42.386;20.434;2022-07-06T01:05:28;97428.28;;;19.23;71.23
63568;BME280;49715;42.386;20.434;2022-07-06T01:07:55;97427.84;;;19.19;71.18
63568;BME280;49715;42.386;20.434;2022-07-06T01:10:23;97428.69;;;19.13;71.28
63568;BME280;49715;42.386;20.434;2022-07-06T01:12:49;97433.78;;;19.01;70.90
63568;BME280;49715;42.386;20.434;2022-07-06T01:15:19;97433.16;;;18.86;71.16
63568;BME280;49715;42.386;20.434;2022-07-06T01:17:47;97426.97;;;18.72;71.10
63568;BME280;49715;42.386;20.434;2022-07-06T01:22:46;97418.28;;;18.57;71.17
63568;BME280;49715;42.386;20.434;2022-07-06T01:25:14;97409.84;;;18.47;71.09
63568;BME280;49715;42.386;20.434;2022-07-06T01:27:42;97413.31;;;18.41;71.39
63568;BME280;49715;42.386;20.434;2022-07-06T01:30:17;97402.19;;;18.31;71.57
63568;BME280;49715;42.386;20.434;2022-07-06T01:32:44;97413.25;;;18.27;71.77
63568;BME280;49715;42.386;20.434;2022-07-06T01:35:12;97412.22;;;18.22;73.06
63568;BME280;49715;42.386;20.434;2022-07-06T01:37:39;97397.03;;;18.22;71.65
63568;BME280;49715;42.386;20.434;2022-07-06T01:40:09;97402.78;;;18.26;71.51
63568;BME280;49715;42.386;20.434;2022-07-06T01:42:36;97398.88;;;18.22;71.52
63568;BME280;49715;42.386;20.434;2022-07-06T01:45:04;97397.84;;;18.23;71.33
63568;BME280;49715;42.386;20.434;2022-07-06T01:47:31;97389.19;;;18.14;71.36
63568;BME280;49715;42.386;20.434;2022-07-06T01:50:00;97396.59;;;18.19;71.36
63568;BME280;49715;42.386;20.434;2022-07-06T01:52:29;97393.47;;;18.09;71.57
63568;BME280;49715;42.386;20.434;2022-07-06T01:54:57;97392.88;;;18.07;71.29
63568;BME280;49715;42.386;20.434;2022-07-06T01:57:23;97395.09;;;18.03;71.40
63568;BME280;49715;42.386;20.434;2022-07-06T01:59:50;97396.34;;;18.07;71.42
63568;BME280;49715;42.386;20.434;2022-07-06T02:02:18;97387.25;;;17.95;71.34
63568;BME280;49715;42.386;20.434;2022-07-06T02:04:44;97394.72;;;18.06;71.77
63568;BME280;49715;42.386;20.434;2022-07-06T02:07:11;97381.34;;;17.99;71.62
63568;BME280;49715;42.386;20.434;2022-07-06T02:09:37;97398.38;;;18.05;71.61
63568;BME280;49715;42.386;20.434;2022-07-06T02:12:04;97404.34;;;18.07;71.52
63568;BME280;49715;42.386;20.434;2022-07-06T02:14:31;97404.16;;;18.09;71.21
63568;BME280;49715;42.386;20.434;2022-07-06T02:16:58;97402.28;;;18.09;71.16
63568;BME280;49715;42.386;20.434;2022-07-06T02:19:24;97411.13;;;18.10;70.81
63568;BME280;49715;42.386;20.434;2022-07-06T02:21:51;97404.34;;;18.07;71.29
63568;BME280;49715;42.386;20.434;2022-07-06T02:24:17;97408.44;;;18.10;71.31
63568;BME280;49715;42.386;20.434;2022-07-06T02:26:43;97394.88;;;18.05;71.33
63568;BME280;49715;42.386;20.434;2022-07-06T02:29:10;97404.56;;;18.06;71.28
63568;BME280;49715;42.386;20.434;2022-07-06T02:31:36;97408.06;;;18.06;71.35
63568;BME280;49715;42.386;20.434;2022-07-06T02:34:04;97409.69;;;18.07;71.44
63568;BME280;49715;42.386;20.434;2022-07-06T02:36:32;97404.34;;;18.07;71.42
63568;BME280;49715;42.386;20.434;2022-07-06T02:38:59;97402.88;;;18.05;72.71
63568;BME280;49715;42.386;20.434;2022-07-06T02:41:26;97403.53;;;18.07;71.33
63568;BME280;49715;42.386;20.434;2022-07-06T02:43:53;97383.34;;;17.91;71.22
63568;BME280;49715;42.386;20.434;2022-07-06T02:46:19;97413.56;;;18.05;71.45
63568;BME280;49715;42.386;20.434;2022-07-06T02:48:46;97412.72;;;17.97;72.94
63568;BME280;49715;42.386;20.434;2022-07-06T02:51:12;97406.75;;;17.95;71.51
63568;BME280;49715;42.386;20.434;2022-07-06T02:53:39;97392.19;;;17.91;71.30
63568;BME280;49715;42.386;20.434;2022-07-06T02:56:06;97406.13;;;17.93;71.69
63568;BME280;49715;42.386;20.434;2022-07-06T02:58:33;97411.22;;;17.88;73.06
63568;BME280;49715;42.386;20.434;2022-07-06T03:01:00;97408.13;;;17.85;71.70
63568;BME280;49715;42.386;20.434;2022-07-06T03:03:26;97420.88;;;17.89;71.41
63568;BME280;49715;42.386;20.434;2022-07-06T03:05:53;97428.88;;;17.89;71.54
63568;BME280;49715;42.386;20.434;2022-07-06T03:08:20;97432.78;;;17.87;71.69
63568;BME280;49715;42.386;20.434;2022-07-06T03:10:47;97445.06;;;17.88;71.86
63568;BME280;49715;42.386;20.434;2022-07-06T03:13:13;97446.28;;;17.85;72.03
63568;BME280;49715;42.386;20.434;2022-07-06T03:15:40;97434.63;;;17.86;71.90
63568;BME280;49715;42.386;20.434;2022-07-06T03:18:06;97434.19;;;17.83;72.07
63568;BME280;49715;42.386;20.434;2022-07-06T03:20:33;97446.28;;;17.85;72.00
63568;BME280;49715;42.386;20.434;2022-07-06T03:22:59;97443.00;;;17.83;72.08
63568;BME280;49715;42.386;20.434;2022-07-06T03:25:26;97446.25;;;17.79;72.09
63568;BME280;49715;42.386;20.434;2022-07-06T03:27:53;97451.19;;;17.82;72.42
63568;BME280;49715;42.386;20.434;2022-07-06T03:30:20;97448.91;;;17.79;73.44
63568;BME280;49715;42.386;20.434;2022-07-06T03:32:52;97453.63;;;17.77;72.22
63568;BME280;49715;42.386;20.434;2022-07-06T03:35:20;97446.63;;;17.75;72.17
63568;BME280;49715;42.386;20.434;2022-07-06T03:37:49;97443.97;;;17.75;72.20
63568;BME280;49715;42.386;20.434;2022-07-06T03:40:16;97456.94;;;17.85;72.25
63568;BME280;49715;42.386;20.434;2022-07-06T03:42:45;97432.31;;;17.77;72.31
63568;BME280;49715;42.386;20.434;2022-07-06T03:45:12;97444.84;;;17.83;72.31
63568;BME280;49715;42.386;20.434;2022-07-06T03:47:43;97422.19;;;17.72;72.43
63568;BME280;49715;42.386;20.434;2022-07-06T03:50:10;97447.75;;;17.88;72.63
63568;BME280;49715;42.386;20.434;2022-07-06T03:52:37;97452.06;;;17.95;72.33
63568;BME280;49715;42.386;20.434;2022-07-06T03:55:09;97454.16;;;18.00;72.17
63568;BME280;49715;42.386;20.434;2022-07-06T03:57:37;97450.28;;;18.02;72.14
63568;BME280;49715;42.386;20.434;2022-07-06T04:00:06;97446.00;;;18.08;72.04
63568;BME280;49715;42.386;20.434;2022-07-06T04:02:40;97452.97;;;18.09;71.96
63568;BME280;49715;42.386;20.434;2022-07-06T04:05:11;97439.22;;;18.06;72.03
63568;BME280;49715;42.386;20.434;2022-07-06T04:07:38;97448.06;;;18.13;72.28
63568;BME280;49715;42.386;20.434;2022-07-06T04:10:05;97442.97;;;18.18;72.06
63568;BME280;49715;42.386;20.434;2022-07-06T04:12:31;97448.91;;;18.20;73.19
63568;BME280;49715;42.386;20.434;2022-07-06T04:14:59;97443.41;;;18.21;72.01
63568;BME280;49715;42.386;20.434;2022-07-06T04:17:25;97450.84;;;18.33;71.87
63568;BME280;49715;42.386;20.434;2022-07-06T04:20:11;97455.13;;;18.34;71.93
63568;BME280;49715;42.386;20.434;2022-07-06T04:22:40;97463.41;;;18.45;71.74
63568;BME280;49715;42.386;20.434;2022-07-06T04:25:08;97459.72;;;18.46;71.58
63568;BME280;49715;42.386;20.434;2022-07-06T04:27:35;97461.81;;;18.58;71.67
63568;BME280;49715;42.386;20.434;2022-07-06T04:30:03;97464.50;;;18.64;71.42
63568;BME280;49715;42.386;20.434;2022-07-06T04:32:30;97462.50;;;18.73;71.24
63568;BME280;49715;42.386;20.434;2022-07-06T04:34:58;97466.19;;;18.78;71.40
63568;BME280;49715;42.386;20.434;2022-07-06T04:37:24;97478.53;;;18.80;72.13
63568;BME280;49715;42.386;20.434;2022-07-06T04:39:52;97459.03;;;18.79;70.81
63568;BME280;49715;42.386;20.434;2022-07-06T04:42:19;97471.97;;;18.82;70.76
63568;BME280;49715;42.386;20.434;2022-07-06T04:44:45;97459.66;;;18.88;70.76
63568;BME280;49715;42.386;20.434;2022-07-06T04:47:14;97469.53;;;18.94;71.13
63568;BME280;49715;42.386;20.434;2022-07-06T04:49:41;97468.09;;;18.91;70.63
63568;BME280;49715;42.386;20.434;2022-07-06T04:52:08;97472.22;;;18.94;71.31
63568;BME280;49715;42.386;20.434;2022-07-06T04:54:35;97469.34;;;19.02;70.45
63568;BME280;49715;42.386;20.434;2022-07-06T04:57:03;97476.13;;;19.11;70.49
63568;BME280;49715;42.386;20.434;2022-07-06T04:59:31;97468.31;;;19.16;69.92
63568;BME280;49715;42.386;20.434;2022-07-06T05:01:58;97467.72;;;19.21;70.24
63568;BME280;49715;42.386;20.434;2022-07-06T05:04:25;97459.31;;;19.24;70.12
63568;BME280;49715;42.386;20.434;2022-07-06T05:06:51;97480.06;;;19.35;70.36
63568;BME280;49715;42.386;20.434;2022-07-06T05:09:18;97467.31;;;19.37;70.26
63568;BME280;49715;42.386;20.434;2022-07-06T05:11:47;97477.41;;;19.48;70.19
63568;BME280;49715;42.386;20.434;2022-07-06T05:14:13;97479.47;;;19.53;70.05
63568;BME280;49715;42.386;20.434;2022-07-06T05:16:40;97449.03;;;19.34;70.13
63568;BME280;49715;42.386;20.434;2022-07-06T05:19:08;97479.09;;;19.63;70.24
63568;BME280;49715;42.386;20.434;2022-07-06T05:21:34;97486.88;;;19.71;70.15
63568;BME280;49715;42.386;20.434;2022-07-06T05:24:01;97478.22;;;19.75;70.85
63568;BME280;49715;42.386;20.434;2022-07-06T05:26:28;97479.44;;;19.86;69.58
63568;BME280;49715;42.386;20.434;2022-07-06T05:28:54;97472.25;;;19.87;70.16
63568;BME280;49715;42.386;20.434;2022-07-06T05:31:22;97463.41;;;19.93;69.38
63568;BME280;49715;42.386;20.434;2022-07-06T05:33:53;97470.19;;;20.02;69.29
63568;BME280;49715;42.386;20.434;2022-07-06T05:36:21;97475.28;;;20.10;69.16
63568;BME280;49715;42.386;20.434;2022-07-06T05:38:47;97468.06;;;20.17;69.07
63568;BME280;49715;42.386;20.434;2022-07-06T05:41:14;97478.34;;;20.27;68.87
63568;BME280;49715;42.386;20.434;2022-07-06T05:43:40;97486.97;;;20.29;68.88
63568;BME280;49715;42.386;20.434;2022-07-06T05:46:07;97478.50;;;20.39;68.94
63568;BME280;49715;42.386;20.434;2022-07-06T05:48:42;97473.13;;;20.45;68.86
63568;BME280;49715;42.386;20.434;2022-07-06T05:51:27;97476.22;;;20.55;68.91
63568;BME280;49715;42.386;20.434;2022-07-06T05:53:53;97475.75;;;20.65;68.77
63568;BME280;49715;42.386;20.434;2022-07-06T05:56:21;97474.28;;;20.69;68.68
63568;BME280;49715;42.386;20.434;2022-07-06T05:58:47;97476.53;;;20.72;68.54
63568;BME280;49715;42.386;20.434;2022-07-06T06:01:14;97478.34;;;20.78;68.37
63568;BME280;49715;42.386;20.434;2022-07-06T06:03:45;97479.53;;;20.89;68.33
63568;BME280;49715;42.386;20.434;2022-07-06T06:06:13;97483.81;;;20.97;67.77
63568;BME280;49715;42.386;20.434;2022-07-06T06:08:39;97475.75;;;21.03;67.58
63568;BME280;49715;42.386;20.434;2022-07-06T06:11:06;97478.38;;;21.10;67.13
63568;BME280;49715;42.386;20.434;2022-07-06T06:13:32;97473.19;;;21.15;66.75
63568;BME280;49715;42.386;20.434;2022-07-06T06:15:59;97472.53;;;21.20;66.58
63568;BME280;49715;42.386;20.434;2022-07-06T06:18:25;97472.06;;;21.29;66.08
63568;BME280;49715;42.386;20.434;2022-07-06T06:20:53;97470.63;;;21.33;66.18
63568;BME280;49715;42.386;20.434;2022-07-06T06:23:19;97475.34;;;21.38;66.13
63568;BME280;49715;42.386;20.434;2022-07-06T06:25:46;97475.50;;;21.43;66.09
63568;BME280;49715;42.386;20.434;2022-07-06T06:28:12;97469.47;;;21.48;65.85
63568;BME280;49715;42.386;20.434;2022-07-06T06:30:39;97471.94;;;21.49;65.51
63568;BME280;49715;42.386;20.434;2022-07-06T06:33:18;97479.31;;;21.54;65.47
63568;BME280;49715;42.386;20.434;2022-07-06T06:35:50;97477.84;;;21.58;65.48
63568;BME280;49715;42.386;20.434;2022-07-06T06:38:18;97470.94;;;21.69;65.19
63568;BME280;49715;42.386;20.434;2022-07-06T06:40:44;97465.50;;;21.75;64.77
63568;BME280;49715;42.386;20.434;2022-07-06T06:43:11;97460.53;;;21.79;64.34
63568;BME280;49715;42.386;20.434;2022-07-06T06:45:45;97455.56;;;21.82;64.12
63568;BME280;49715;42.386;20.434;2022-07-06T06:48:12;97457.09;;;21.90;63.80
63568;BME280;49715;42.386;20.434;2022-07-06T06:50:39;97462.44;;;21.97;63.86
63568;BME280;49715;42.386;20.434;2022-07-06T06:53:05;97459.66;;;22.03;63.49
63568;BME280;49715;42.386;20.434;2022-07-06T06:55:32;97471.84;;;22.06;63.17
63568;BME280;49715;42.386;20.434;2022-07-06T06:57:58;97462.50;;;22.08;62.68
63568;BME280;49715;42.386;20.434;2022-07-06T07:00:24;97460.41;;;22.10;62.54
63568;BME280;49715;42.386;20.434;2022-07-06T07:02:51;97459.75;;;22.15;62.38
63568;BME280;49715;42.386;20.434;2022-07-06T07:05:17;97455.38;;;22.21;62.03
63568;BME280;49715;42.386;20.434;2022-07-06T07:07:44;97474.00;;;22.34;62.10
63568;BME280;49715;42.386;20.434;2022-07-06T07:10:10;97466.91;;;22.40;61.72
63568;BME280;49715;42.386;20.434;2022-07-06T07:12:47;97467.81;;;22.52;61.58
63568;BME280;49715;42.386;20.434;2022-07-06T07:15:14;97455.34;;;22.57;61.40
63568;BME280;49715;42.386;20.434;2022-07-06T07:17:41;97466.06;;;22.76;61.23
63568;BME280;49715;42.386;20.434;2022-07-06T07:20:08;97464.69;;;22.85;60.55
63568;BME280;49715;42.386;20.434;2022-07-06T07:22:35;97461.53;;;22.88;60.58
63568;BME280;49715;42.386;20.434;2022-07-06T07:25:01;97466.88;;;22.95;60.39
63568;BME280;49715;42.386;20.434;2022-07-06T07:27:28;97459.03;;;22.93;60.23
63568;BME280;49715;42.386;20.434;2022-07-06T07:29:55;97465.97;;;23.12;60.39
63568;BME280;49715;42.386;20.434;2022-07-06T07:32:21;97474.31;;;23.23;60.23
63568;BME280;49715;42.386;20.434;2022-07-06T07:34:48;97467.78;;;23.30;60.06
63568;BME280;49715;42.386;20.434;2022-07-06T07:37:14;97459.03;;;23.35;59.79
63568;BME280;49715;42.386;20.434;2022-07-06T07:39:41;97453.19;;;23.38;59.77
63568;BME280;49715;42.386;20.434;2022-07-06T07:42:08;97457.75;;;23.49;59.49
63568;BME280;49715;42.386;20.434;2022-07-06T07:44:35;97459.50;;;23.55;59.06
63568;BME280;49715;42.386;20.434;2022-07-06T07:47:02;97465.84;;;23.61;59.06
63568;BME280;49715;42.386;20.434;2022-07-06T07:49:28;97453.94;;;23.69;58.92
63568;BME280;49715;42.386;20.434;2022-07-06T07:51:54;97456.06;;;23.78;58.70
63568;BME280;49715;42.386;20.434;2022-07-06T07:54:27;97449.25;;;23.76;58.80
63568;BME280;49715;42.386;20.434;2022-07-06T07:57:08;97458.06;;;23.83;58.84
63568;BME280;49715;42.386;20.434;2022-07-06T07:59:38;97447.84;;;23.85;58.62
63568;BME280;49715;42.386;20.434;2022-07-06T08:02:05;97452.78;;;23.88;58.18
63568;BME280;49715;42.386;20.434;2022-07-06T08:04:32;97442.59;;;24.02;58.27
63568;BME280;49715;42.386;20.434;2022-07-06T08:06:59;97437.88;;;24.09;58.29
63568;BME280;49715;42.386;20.434;2022-07-06T08:09:25;97445.25;;;24.13;58.24
63568;BME280;49715;42.386;20.434;2022-07-06T08:11:51;97446.53;;;24.23;58.12
63568;BME280;49715;42.386;20.434;2022-07-06T08:14:18;97436.31;;;24.25;58.02
63568;BME280;49715;42.386;20.434;2022-07-06T08:16:45;97439.22;;;24.35;58.01
63568;BME280;49715;42.386;20.434;2022-07-06T08:19:14;97431.06;;;24.42;57.74
63568;BME280;49715;42.386;20.434;2022-07-06T08:21:41;97429.53;;;24.46;57.72
63568;BME280;49715;42.386;20.434;2022-07-06T08:24:08;97429.03;;;24.49;58.08
63568;BME280;49715;42.386;20.434;2022-07-06T08:26:35;97425.97;;;24.57;57.77
63568;BME280;49715;42.386;20.434;2022-07-06T08:29:02;97425.69;;;24.70;57.71
63568;BME280;49715;42.386;20.434;2022-07-06T08:31:29;97410.34;;;24.71;57.23
63568;BME280;49715;42.386;20.434;2022-07-06T08:33:55;97413.84;;;24.71;56.98
63568;BME280;49715;42.386;20.434;2022-07-06T08:36:23;97399.41;;;24.77;57.00
63568;BME280;49715;42.386;20.434;2022-07-06T08:39:04;97418.97;;;25.01;57.24
63568;BME280;49715;42.386;20.434;2022-07-06T08:41:31;97413.66;;;25.06;57.00
63568;BME280;49715;42.386;20.434;2022-07-06T08:43:57;97412.78;;;25.17;56.56
63568;BME280;49715;42.386;20.434;2022-07-06T08:46:25;97416.59;;;25.33;56.50
63568;BME280;49715;42.386;20.434;2022-07-06T08:48:53;97416.50;;;25.45;56.25
63568;BME280;49715;42.386;20.434;2022-07-06T08:51:21;97430.94;;;25.56;55.84
63568;BME280;49715;42.386;20.434;2022-07-06T08:53:49;97420.81;;;25.63;55.63
63568;BME280;49715;42.386;20.434;2022-07-06T08:56:16;97411.91;;;25.79;55.54
63568;BME280;49715;42.386;20.434;2022-07-06T08:58:44;97421.03;;;25.95;55.13
63568;BME280;49715;42.386;20.434;2022-07-06T09:01:11;97416.16;;;25.92;53.41
63568;BME280;49715;42.386;20.434;2022-07-06T09:03:41;97413.25;;;25.99;54.60
63568;BME280;49715;42.386;20.434;2022-07-06T09:06:08;97415.22;;;26.03;54.32
63568;BME280;49715;42.386;20.434;2022-07-06T09:08:35;97408.81;;;26.09;54.06
63568;BME280;49715;42.386;20.434;2022-07-06T09:11:03;97415.97;;;26.20;53.95
63568;BME280;49715;42.386;20.434;2022-07-06T09:13:29;97412.75;;;26.24;53.40
63568;BME280;49715;42.386;20.434;2022-07-06T09:16:11;97409.44;;;26.38;53.51
63568;BME280;49715;42.386;20.434;2022-07-06T09:18:38;97406.13;;;26.53;53.32
63568;BME280;49715;42.386;20.434;2022-07-06T09:21:06;97399.13;;;26.57;52.84
63568;BME280;49715;42.386;20.434;2022-07-06T09:23:32;97388.88;;;26.59;52.82
63568;BME280;49715;42.386;20.434;2022-07-06T09:26:02;97399.03;;;26.74;52.61
63568;BME280;49715;42.386;20.434;2022-07-06T09:28:43;97403.50;;;26.85;52.02
63568;BME280;49715;42.386;20.434;2022-07-06T09:31:10;97396.34;;;27.01;51.79
63568;BME280;49715;42.386;20.434;2022-07-06T09:33:37;97387.78;;;27.09;51.71
63568;BME280;49715;42.386;20.434;2022-07-06T09:36:04;97387.97;;;27.30;51.48
63568;BME280;49715;42.386;20.434;2022-07-06T09:38:32;97387.22;;;27.39;51.03
63568;BME280;49715;42.386;20.434;2022-07-06T09:40:58;97383.22;;;27.52;50.93
63568;BME280;49715;42.386;20.434;2022-07-06T09:43:24;97384.94;;;27.63;50.01
63568;BME280;49715;42.386;20.434;2022-07-06T09:45:55;97388.09;;;27.87;50.84
63568;BME280;49715;42.386;20.434;2022-07-06T09:48:27;97381.13;;;27.96;49.83
63568;BME280;49715;42.386;20.434;2022-07-06T09:50:58;97395.28;;;28.14;49.83
63568;BME280;49715;42.386;20.434;2022-07-06T09:53:26;97387.75;;;28.26;49.02
63568;BME280;49715;42.386;20.434;2022-07-06T09:55:56;97388.06;;;28.35;48.79
63568;BME280;49715;42.386;20.434;2022-07-06T09:58:24;97392.72;;;28.55;48.13
63568;BME280;49715;42.386;20.434;2022-07-06T10:00:51;97383.00;;;28.59;47.82
63568;BME280;49715;42.386;20.434;2022-07-06T10:03:17;97380.25;;;28.54;45.57
63568;BME280;49715;42.386;20.434;2022-07-06T10:05:45;97383.28;;;28.67;47.73
63568;BME280;49715;42.386;20.434;2022-07-06T10:08:14;97382.50;;;28.82;47.37
63568;BME280;49715;42.386;20.434;2022-07-06T10:10:43;97387.13;;;28.87;46.80
63568;BME280;49715;42.386;20.434;2022-07-06T10:13:10;97391.75;;;28.91;46.42
63568;BME280;49715;42.386;20.434;2022-07-06T10:15:38;97384.13;;;28.88;46.73
63568;BME280;49715;42.386;20.434;2022-07-06T10:18:07;97387.97;;;29.03;46.25
63568;BME280;49715;42.386;20.434;2022-07-06T10:20:36;97381.50;;;29.14;45.69
63568;BME280;49715;42.386;20.434;2022-07-06T10:23:07;97375.25;;;29.29;45.57
63568;BME280;49715;42.386;20.434;2022-07-06T10:25:34;97375.25;;;29.39;45.31
63568;BME280;49715;42.386;20.434;2022-07-06T10:28:00;97378.25;;;29.58;44.96
63568;BME280;49715;42.386;20.434;2022-07-06T10:30:28;97363.28;;;29.65;44.42
63568;BME280;49715;42.386;20.434;2022-07-06T10:32:57;97371.94;;;29.83;44.43
63568;BME280;49715;42.386;20.434;2022-07-06T10:35:25;97356.69;;;29.92;44.40
63568;BME280;49715;42.386;20.434;2022-07-06T10:38:09;97339.56;;;29.91;43.36
63568;BME280;49715;42.386;20.434;2022-07-06T10:40:38;97357.44;;;30.18;43.66
63568;BME280;49715;42.386;20.434;2022-07-06T10:43:23;97356.34;;;30.19;43.67
63568;BME280;49715;42.386;20.434;2022-07-06T10:45:58;97351.44;;;30.26;43.34
63568;BME280;49715;42.386;20.434;2022-07-06T10:48:24;97349.00;;;30.19;42.19
63568;BME280;49715;42.386;20.434;2022-07-06T10:50:55;97352.25;;;30.26;43.37
63568;BME280;49715;42.386;20.434;2022-07-06T10:53:23;97337.53;;;30.27;43.42
63568;BME280;49715;42.386;20.434;2022-07-06T10:55:52;97352.16;;;30.42;43.05
63568;BME280;49715;42.386;20.434;2022-07-06T10:58:39;97345.84;;;30.51;42.10
63568;BME280;49715;42.386;20.434;2022-07-06T11:01:08;97344.97;;;30.61;42.68
63568;BME280;49715;42.386;20.434;2022-07-06T11:03:44;97350.09;;;30.73;41.88
63568;BME280;49715;42.386;20.434;2022-07-06T11:06:20;97350.31;;;30.82;41.33
63568;BME280;49715;42.386;20.434;2022-07-06T11:08:58;97346.66;;;30.96;40.62
63568;BME280;49715;42.386;20.434;2022-07-06T11:16:30;97335.94;;;31.44;40.13
63568;BME280;49715;42.386;20.434;2022-07-06T11:21:47;97334.16;;;31.59;39.23
63568;BME280;49715;42.386;20.434;2022-07-06T11:24:17;97325.81;;;31.74;39.24
63568;BME280;49715;42.386;20.434;2022-07-06T11:26:46;97321.59;;;31.87;39.17
63568;BME280;49715;42.386;20.434;2022-07-06T11:29:13;97316.25;;;32.00;38.63
63568;BME280;49715;42.386;20.434;2022-07-06T11:31:42;97311.78;;;32.10;38.75
63568;BME280;49715;42.386;20.434;2022-07-06T11:34:11;97308.09;;;32.19;38.18
63568;BME280;49715;42.386;20.434;2022-07-06T11:36:38;97307.66;;;32.36;37.98
63568;BME280;49715;42.386;20.434;2022-07-06T11:39:05;97307.13;;;32.53;37.80
63568;BME280;49715;42.386;20.434;2022-07-06T11:41:32;97312.28;;;32.73;37.23
63568;BME280;49715;42.386;20.434;2022-07-06T11:44:00;97310.41;;;32.88;36.83
63568;BME280;49715;42.386;20.434;2022-07-06T11:46:29;97305.94;;;32.97;36.25
63568;BME280;49715;42.386;20.434;2022-07-06T11:48:58;97295.94;;;33.06;35.84
63568;BME280;49715;42.386;20.434;2022-07-06T11:51:27;97306.72;;;33.30;35.38
63568;BME280;49715;42.386;20.434;2022-07-06T11:53:56;97309.44;;;33.49;35.17
63568;BME280;49715;42.386;20.434;2022-07-06T11:56:24;97305.00;;;33.53;34.67
63568;BME280;49715;42.386;20.434;2022-07-06T11:58:58;97297.22;;;33.41;34.49
63568;BME280;49715;42.386;20.434;2022-07-06T12:01:26;97294.38;;;33.32;34.31
63568;BME280;49715;42.386;20.434;2022-07-06T12:03:57;97299.97;;;33.41;34.38
63568;BME280;49715;42.386;20.434;2022-07-06T12:06:25;97287.16;;;33.55;34.47
63568;BME280;49715;42.386;20.434;2022-07-06T12:08:59;97287.38;;;33.73;33.02
63568;BME280;49715;42.386;20.434;2022-07-06T12:11:29;97279.88;;;33.78;34.09
63568;BME280;49715;42.386;20.434;2022-07-06T12:13:58;97280.69;;;33.93;34.10
63568;BME280;49715;42.386;20.434;2022-07-06T12:18:56;97296.91;;;34.17;33.61
63568;BME280;49715;42.386;20.434;2022-07-06T12:21:23;97284.09;;;34.26;33.17
63568;BME280;49715;42.386;20.434;2022-07-06T12:23:51;97284.69;;;34.37;33.20
63568;BME280;49715;42.386;20.434;2022-07-06T12:26:20;97272.03;;;34.41;33.13
63568;BME280;49715;42.386;20.434;2022-07-06T12:31:35;97275.16;;;34.48;32.62
63568;BME280;49715;42.386;20.434;2022-07-06T12:34:03;97274.44;;;34.56;32.85
63568;BME280;49715;42.386;20.434;2022-07-06T12:36:31;97272.94;;;34.72;32.41
63568;BME280;49715;42.386;20.434;2022-07-06T12:38:57;97269.34;;;34.86;32.16
63568;BME280;49715;42.386;20.434;2022-07-06T12:41:31;97271.25;;;35.07;31.34
63568;BME280;49715;42.386;20.434;2022-07-06T12:44:09;97266.97;;;35.15;30.71
63568;BME280;49715;42.386;20.434;2022-07-06T12:46:40;97260.03;;;35.18;31.37
63568;BME280;49715;42.386;20.434;2022-07-06T12:51:59;97257.34;;;35.26;29.03
63568;BME280;49715;42.386;20.434;2022-07-06T12:54:32;97257.81;;;35.20;30.56
63568;BME280;49715;42.386;20.434;2022-07-06T12:57:11;97257.53;;;35.30;30.23
63568;BME280;49715;42.386;20.434;2022-07-06T12:59:46;97256.38;;;35.53;30.69
63568;BME280;49715;42.386;20.434;2022-07-06T13:05:00;97237.50;;;36.00;29.17
63568;BME280;49715;42.386;20.434;2022-07-06T13:07:28;97238.50;;;36.22;29.95
63568;BME280;49715;42.386;20.434;2022-07-06T13:09:55;97245.44;;;36.36;29.40
63568;BME280;49715;42.386;20.434;2022-07-06T13:12:22;97230.13;;;36.44;29.34
63568;BME280;49715;42.386;20.434;2022-07-06T13:14:50;97225.44;;;36.53;29.19
63568;BME280;49715;42.386;20.434;2022-07-06T13:17:17;97227.72;;;36.51;28.41